createdAt,value
2019-05-10T00:01:44.733Z,15.03
2019-05-10T00:04:32.053Z,14.93
2019-05-10T00:07:19.065Z,14.83
2019-05-10T00:09:47.696Z,14.75
2019-05-10T00:12:43.601Z,14.67
2019-05-10T00:15:19.994Z,14.71
2019-05-10T00:17:51.623Z,14.70
2019-05-10T00:20:23.760Z,14.68
2019-05-10T00:22:54.053Z,14.66
2019-05-10T00:25:23.716Z,14.64
2019-05-10T00:27:53.609Z,14.62
2019-05-10T00:30:24.867Z,14.59
2019-05-10T00:32:54.618Z,14.54
2019-05-10T00:35:26.548Z,14.48
2019-05-10T00:37:56.185Z,14.45
2019-05-10T00:40:25.930Z,14.41
2019-05-10T00:42:55.674Z,14.37
2019-05-10T00:45:25.498Z,14.32
2019-05-10T00:47:55.751Z,14.27
2019-05-10T00:50:26.100Z,14.24
2019-05-10T00:59:03.183Z,14.03
2019-05-10T01:01:33.605Z,13.97
2019-05-10T01:04:04.984Z,13.96
2019-05-10T01:06:34.600Z,13.93
2019-05-10T01:09:06.073Z,13.88
2019-05-10T01:11:35.771Z,13.87
2019-05-10T01:14:05.609Z,13.85
2019-05-10T01:16:35.576Z,13.78
2019-05-10T01:19:08.749Z,13.75
2019-05-10T01:21:40.079Z,13.69
2019-05-10T01:24:13.451Z,13.62
2019-05-10T01:26:44.683Z,13.55
2019-05-10T01:29:17.274Z,13.45
2019-05-10T01:31:51.966Z,13.36
2019-05-10T01:34:23.195Z,13.29
2019-05-10T01:36:53.499Z,13.23
2019-05-10T01:39:24.548Z,13.19
2019-05-10T01:41:54.413Z,13.12
2019-05-10T01:44:24.193Z,13.07
2019-05-10T01:46:54.048Z,12.95
2019-05-10T01:49:23.830Z,12.88
2019-05-10T01:51:54.460Z,12.84
2019-05-10T01:54:25.963Z,12.76
2019-05-10T01:57:06.851Z,12.69
2019-05-10T01:59:38.118Z,12.60
2019-05-10T02:02:10.674Z,12.54
2019-05-10T02:04:42.686Z,12.48
2019-05-10T02:07:14.934Z,12.43
2019-05-10T02:09:45.458Z,12.37
2019-05-10T02:12:16.869Z,12.34
2019-05-10T02:14:47.156Z,12.32
2019-05-10T02:17:17.333Z,12.32
2019-05-10T02:19:47.141Z,12.26
2019-05-10T02:22:22.747Z,12.19
2019-05-10T02:24:53.774Z,12.15
2019-05-10T02:27:29.289Z,12.13
2019-05-10T02:32:53.124Z,12.09
2019-05-10T02:35:23.048Z,12.05
2019-05-10T02:38:04.262Z,12.03
2019-05-10T02:40:34.257Z,12.00
2019-05-10T02:43:03.886Z,12.00
2019-05-10T02:45:34.405Z,11.98
2019-05-10T02:48:04.574Z,11.98
2019-05-10T02:50:35.721Z,11.96
2019-05-10T02:53:05.789Z,11.96
2019-05-10T02:55:39.673Z,11.95
2019-05-10T02:58:16.615Z,11.98
2019-05-10T03:04:30.978Z,11.96
2019-05-10T03:06:42.953Z,11.90
2019-05-10T03:09:13.601Z,11.88
2019-05-10T03:11:50.266Z,11.89
2019-05-10T03:14:20.195Z,11.91
2019-05-10T03:16:53.151Z,11.92
2019-05-10T03:19:23.369Z,11.91
2019-05-10T03:22:03.855Z,11.88
2019-05-10T03:24:33.371Z,11.86
2019-05-10T03:27:04.250Z,11.83
2019-05-10T03:29:35.616Z,11.83
2019-05-10T03:32:10.558Z,11.85
2019-05-10T03:34:40.705Z,11.86
2019-05-10T03:37:35.628Z,11.84
2019-05-10T03:40:07.788Z,11.85
2019-05-10T03:42:39.406Z,11.83
2019-05-10T03:45:10.185Z,11.81
2019-05-10T03:47:41.918Z,11.80
2019-05-10T03:50:11.639Z,11.78
2019-05-10T03:52:46.044Z,11.78
2019-05-10T03:55:15.692Z,11.78
2019-05-10T03:57:46.240Z,11.78
2019-05-10T04:00:17.554Z,11.78
2019-05-10T04:02:47.167Z,11.77
2019-05-10T04:05:17.656Z,11.77
2019-05-10T04:07:47.056Z,11.78
2019-05-10T04:10:20.678Z,11.79
2019-05-10T04:12:48.879Z,11.79
2019-05-10T04:15:18.680Z,11.78
2019-05-10T04:17:50.328Z,11.80
2019-05-10T04:20:19.386Z,11.78
2019-05-10T04:22:48.827Z,11.77
2019-05-10T04:25:18.769Z,11.76
2019-05-10T04:27:51.543Z,11.78
2019-05-10T04:30:21.195Z,11.79
2019-05-10T04:32:50.925Z,11.80
2019-05-10T04:35:20.775Z,11.80
2019-05-10T04:37:51.689Z,11.79
2019-05-10T04:40:22.050Z,11.80
2019-05-10T04:42:51.570Z,11.81
2019-05-10T04:45:24.607Z,11.79
2019-05-10T04:47:55.540Z,11.77
2019-05-10T04:50:27.414Z,11.73
2019-05-10T04:52:57.990Z,11.72
2019-05-10T04:55:48.402Z,11.70
2019-05-10T04:58:20.528Z,11.67
2019-05-10T05:00:51.635Z,11.63
2019-05-10T05:03:22.021Z,11.64
2019-05-10T05:05:51.623Z,11.65
2019-05-10T05:08:22.652Z,11.64
2019-05-10T05:10:52.258Z,11.62
2019-05-10T05:13:22.059Z,11.57
2019-05-10T05:15:51.863Z,11.54
2019-05-10T05:18:22.625Z,11.54
2019-05-10T05:21:04.594Z,11.58
2019-05-10T05:23:35.609Z,11.58
2019-05-10T05:26:05.926Z,11.60
2019-05-10T05:28:35.776Z,11.60
2019-05-10T05:31:08.009Z,11.63
2019-05-10T05:33:37.676Z,11.65
2019-05-10T05:36:09.605Z,11.69
2019-05-10T05:38:47.251Z,11.72
2019-05-10T05:43:54.603Z,11.83
2019-05-10T05:49:48.664Z,11.94
2019-05-10T05:52:39.177Z,11.99
2019-05-10T06:34:21.443Z,13.98
2019-05-10T06:36:51.665Z,14.12
2019-05-10T06:39:24.398Z,14.27
2019-05-10T06:42:01.295Z,14.43
2019-05-10T06:44:33.160Z,14.60
2019-05-10T06:47:08.349Z,14.79
2019-05-10T06:49:41.667Z,14.97
2019-05-10T06:52:07.332Z,15.10
2019-05-10T06:54:37.520Z,15.25
2019-05-10T06:57:11.321Z,15.40
2019-05-10T06:59:38.323Z,15.49
2019-05-10T07:02:07.903Z,15.58
2019-05-10T07:04:40.943Z,15.66
2019-05-10T07:07:10.229Z,15.75
2019-05-10T07:10:01.811Z,15.79
2019-05-10T07:12:15.138Z,15.88
2019-05-10T07:14:45.914Z,15.96
2019-05-10T07:17:13.115Z,16.04
2019-05-10T07:19:53.160Z,16.12
2019-05-10T07:22:14.079Z,16.22
2019-05-10T07:24:43.656Z,16.32
2019-05-10T07:27:13.143Z,16.42
2019-05-10T07:29:46.165Z,16.51
2019-05-10T07:32:16.412Z,16.57
2019-05-10T07:34:48.752Z,16.61
2019-05-10T07:37:17.056Z,16.66
2019-05-10T07:39:46.541Z,16.73
2019-05-10T07:42:16.081Z,16.82
2019-05-10T07:44:46.833Z,16.90
2019-05-10T07:47:16.875Z,16.96
2019-05-10T07:49:46.302Z,16.94
2019-05-10T07:52:15.798Z,16.93
2019-05-10T07:54:47.725Z,16.93
2019-05-10T07:57:18.742Z,16.89
2019-05-10T07:59:50.855Z,16.82
2019-05-10T08:02:19.423Z,16.77
2019-05-10T08:04:53.335Z,16.71
2019-05-10T08:07:20.262Z,16.66
2019-05-10T08:09:49.675Z,16.64
2019-05-10T08:12:19.596Z,16.60
2019-05-10T08:14:53.373Z,16.58
2019-05-10T08:17:20.507Z,16.52
2019-05-10T08:19:50.212Z,16.48
2019-05-10T08:22:19.842Z,16.50
2019-05-10T08:24:54.464Z,16.58
2019-05-10T08:27:22.982Z,16.66
2019-05-10T08:30:15.758Z,16.78
2019-05-10T08:32:25.508Z,16.96
2019-05-10T08:34:55.912Z,17.14
2019-05-10T08:37:30.967Z,17.33
2019-05-10T08:39:56.563Z,17.56
2019-05-10T08:42:40.834Z,17.77
2019-05-10T08:45:03.801Z,17.95
2019-05-10T08:47:28.137Z,18.07
2019-05-10T08:50:11.767Z,18.16
2019-05-10T08:52:31.678Z,18.17
2019-05-10T08:55:02.502Z,18.18
2019-05-10T08:57:36.846Z,18.18
2019-05-10T09:00:08.556Z,18.22
2019-05-10T09:02:33.274Z,18.26
2019-05-10T09:05:02.780Z,18.28
2019-05-10T09:07:34.970Z,18.32
2019-05-10T09:10:03.231Z,18.35
2019-05-10T09:12:33.002Z,18.38
2019-05-10T09:15:06.350Z,18.37
2019-05-10T09:17:33.561Z,18.34
2019-05-10T09:20:02.930Z,18.30
2019-05-10T09:22:38.238Z,18.29
2019-05-10T09:25:03.335Z,18.29
2019-05-10T09:27:33.447Z,18.26
2019-05-10T09:30:03.106Z,18.25
2019-05-10T09:32:33.375Z,18.21
2019-05-10T09:35:07.587Z,18.22
2019-05-10T09:37:33.916Z,18.25
2019-05-10T09:40:09.305Z,18.37
2019-05-10T09:42:39.923Z,18.51
2019-05-10T09:45:09.205Z,18.65
2019-05-10T09:47:36.892Z,18.73
2019-05-10T09:50:06.747Z,18.85
2019-05-10T09:52:36.067Z,18.98
2019-05-10T09:55:12.386Z,19.15
2019-05-10T09:57:37.969Z,19.21
2019-05-10T10:00:08.418Z,19.24
2019-05-10T10:02:40.633Z,19.27
2019-05-10T10:05:09.415Z,19.30
2019-05-10T10:07:38.744Z,19.35
2019-05-10T10:10:12.606Z,19.40
2019-05-10T10:12:40.180Z,19.50
2019-05-10T10:15:13.648Z,19.65
2019-05-10T10:17:42.564Z,19.84
2019-05-10T10:20:11.772Z,19.98
2019-05-10T10:22:43.552Z,20.13
2019-05-10T10:25:13.866Z,20.27
2019-05-10T10:27:43.287Z,20.33
2019-05-10T10:30:17.805Z,20.33
2019-05-10T10:32:44.612Z,20.38
2019-05-10T10:35:20.979Z,20.43
2019-05-10T10:37:47.568Z,20.43
2019-05-10T10:40:18.309Z,20.52
2019-05-10T10:42:47.694Z,20.61
2019-05-10T10:45:17.369Z,20.71
2019-05-10T10:47:49.921Z,20.74
2019-05-10T10:50:19.324Z,20.71
2019-05-10T10:52:48.689Z,20.61
2019-05-10T10:55:18.804Z,20.47
2019-05-10T10:57:50.540Z,20.31
2019-05-10T11:00:32.012Z,20.06
2019-05-10T11:03:02.061Z,19.75
2019-05-10T11:05:31.378Z,19.50
2019-05-10T11:08:01.139Z,19.35
2019-05-10T11:10:31.645Z,19.26
2019-05-10T11:13:11.912Z,19.15
2019-05-10T11:15:36.454Z,19.22
2019-05-10T11:18:06.635Z,19.23
2019-05-10T11:20:36.059Z,19.28
2019-05-10T11:23:05.438Z,19.40
2019-05-10T11:25:34.929Z,19.41
2019-05-10T11:28:09.134Z,19.42
2019-05-10T11:30:37.807Z,19.34
2019-05-10T11:33:22.889Z,19.23
2019-05-10T11:35:38.418Z,19.03
2019-05-10T11:38:12.872Z,18.90
2019-05-10T11:40:41.703Z,18.77
2019-05-10T11:43:10.098Z,18.78
2019-05-10T11:45:43.921Z,18.76
2019-05-10T11:48:10.942Z,18.89
2019-05-10T11:50:42.868Z,18.94
2019-05-10T11:53:17.030Z,19.08
2019-05-10T11:55:43.874Z,19.28
2019-05-10T11:58:13.497Z,19.49
2019-05-10T12:00:42.936Z,19.58
2019-05-10T12:03:18.344Z,19.63
2019-05-10T12:05:43.524Z,19.64
2019-05-10T12:08:13.377Z,19.55
2019-05-10T12:10:52.651Z,19.43
2019-05-10T12:15:47.491Z,19.27
2019-05-10T12:18:25.118Z,19.27
2019-05-10T12:20:56.611Z,19.24
2019-05-10T12:23:29.716Z,19.35
2019-05-10T12:26:06.529Z,19.35
2019-05-10T12:26:20.049Z,19.46
2019-05-10T12:28:28.555Z,19.61
2019-05-10T12:30:54.447Z,19.77
2019-05-10T12:33:27.337Z,19.86
2019-05-10T12:35:55.202Z,19.95
2019-05-10T12:38:29.798Z,20.01
2019-05-10T12:40:55.713Z,20.02
2019-05-10T12:43:25.158Z,20.01
2019-05-10T12:45:54.513Z,20.14
2019-05-10T12:48:23.877Z,20.22
2019-05-10T12:50:57.950Z,20.22
2019-05-10T12:53:24.844Z,20.28
2019-05-10T12:55:54.211Z,20.25
2019-05-10T12:58:23.615Z,20.24
2019-05-10T13:00:54.540Z,20.37
2019-05-10T13:03:31.689Z,20.41
2019-05-10T13:05:55.365Z,20.35
2019-05-10T13:08:25.121Z,20.31
2019-05-10T13:10:54.656Z,20.50
2019-05-10T13:13:29.529Z,20.83
2019-05-10T13:15:55.127Z,21.41
2019-05-10T13:18:49.151Z,21.77
2019-05-10T13:20:55.792Z,22.05
2019-05-10T13:23:25.189Z,22.32
2019-05-10T13:25:54.579Z,22.67
2019-05-10T13:28:23.939Z,22.88
2019-05-10T13:30:53.343Z,23.27
2019-05-10T13:33:29.065Z,23.79
2019-05-10T13:35:56.391Z,24.32
2019-05-10T13:38:25.082Z,24.69
2019-05-10T13:40:56.470Z,24.57
2019-05-10T13:43:28.160Z,24.51
2019-05-10T13:45:57.124Z,24.33
2019-05-10T13:48:27.062Z,24.10
2019-05-10T13:50:56.493Z,23.90
2019-05-10T13:53:26.044Z,23.82
2019-05-10T13:55:55.583Z,23.92
2019-05-10T13:58:25.049Z,23.58
2019-05-10T14:00:54.446Z,23.07
2019-05-10T14:03:23.931Z,22.57
2019-05-10T14:05:53.629Z,22.29
2019-05-10T14:08:23.129Z,21.96
2019-05-10T14:10:56.100Z,21.66
2019-05-10T14:13:23.935Z,21.68
2019-05-10T14:15:53.327Z,21.94
2019-05-10T14:18:22.817Z,22.39
2019-05-10T14:20:52.245Z,22.72
2019-05-10T14:23:21.649Z,23.21
2019-05-10T14:25:51.112Z,23.70
2019-05-10T14:28:21.546Z,24.35
2019-05-10T14:30:57.186Z,25.10
2019-05-10T14:33:22.132Z,25.18
2019-05-10T14:35:55.057Z,25.02
2019-05-10T14:38:23.089Z,25.01
2019-05-10T14:40:52.790Z,25.22
2019-05-10T14:43:22.149Z,25.32
2019-05-10T14:45:51.532Z,24.91
2019-05-10T14:48:27.742Z,24.11
2019-05-10T14:50:53.438Z,23.43
2019-05-10T14:53:25.789Z,22.80
2019-05-10T14:55:54.793Z,22.39
2019-05-10T14:58:24.161Z,22.03
2019-05-10T15:00:53.706Z,21.81
2019-05-10T15:03:23.142Z,21.69
2019-05-10T15:05:55.323Z,21.69
2019-05-10T15:08:23.710Z,21.09
2019-05-10T15:10:53.138Z,21.07
2019-05-10T15:13:25.920Z,21.29
2019-05-10T15:15:53.826Z,20.98
2019-05-10T15:18:23.338Z,20.89
2019-05-10T15:20:52.743Z,20.93
2019-05-10T15:23:22.072Z,21.25
2019-05-10T15:25:57.265Z,21.50
2019-05-10T15:28:22.631Z,21.44
2019-05-10T15:30:52.760Z,21.08
2019-05-10T15:33:25.264Z,20.72
2019-05-10T15:35:54.744Z,20.57
2019-05-10T15:38:24.110Z,20.42
2019-05-10T15:40:55.875Z,20.15
2019-05-10T15:43:25.370Z,20.04
2019-05-10T15:45:55.153Z,20.05
2019-05-10T15:48:24.625Z,20.09
2019-05-10T15:50:53.964Z,20.18
2019-05-10T15:53:25.449Z,20.26
2019-05-10T15:55:59.027Z,20.31
2019-05-10T15:58:30.751Z,20.31
2019-05-10T16:00:57.193Z,20.30
2019-05-10T16:03:26.797Z,20.31
2019-05-10T16:06:00.855Z,19.76
2019-05-10T16:08:30.228Z,19.82
2019-05-10T16:10:58.711Z,20.03
2019-05-10T16:13:28.172Z,20.11
2019-05-10T16:15:59.517Z,20.10
2019-05-10T16:18:33.437Z,20.37
2019-05-10T16:21:00.199Z,21.00
2019-05-10T16:23:29.570Z,21.38
2019-05-10T16:25:58.931Z,21.75
2019-05-10T16:28:28.368Z,21.96
2019-05-10T16:30:57.784Z,22.24
2019-05-10T16:33:27.222Z,22.52
2019-05-10T16:35:56.643Z,22.76
2019-05-10T16:38:26.008Z,22.96
2019-05-10T16:41:00.597Z,22.96
2019-05-10T16:43:26.628Z,22.80
2019-05-10T16:45:56.286Z,22.56
2019-05-10T16:48:28.234Z,22.69
2019-05-10T16:50:57.577Z,23.24
2019-05-10T16:53:27.250Z,23.63
2019-05-10T16:55:57.355Z,23.97
2019-05-10T16:58:26.950Z,24.26
2019-05-10T17:00:59.507Z,24.43
2019-05-10T17:03:28.985Z,24.53
2019-05-10T17:06:04.225Z,24.57
2019-05-10T17:08:30.829Z,24.77
2019-05-10T17:11:09.583Z,24.85
2019-05-10T17:13:36.459Z,24.98
2019-05-10T17:16:03.806Z,24.81
2019-05-10T17:18:33.289Z,24.51
2019-05-10T17:21:02.697Z,24.14
2019-05-10T17:23:32.106Z,23.83
2019-05-10T17:26:01.538Z,23.54
2019-05-10T17:28:35.266Z,23.34
2019-05-10T17:31:07.561Z,23.23
2019-05-10T17:33:36.662Z,23.08
2019-05-10T17:36:08.432Z,22.92
2019-05-10T17:38:35.853Z,22.75
2019-05-10T17:41:05.197Z,22.54
2019-05-10T17:43:34.646Z,22.60
2019-05-10T17:46:04.106Z,22.73
2019-05-10T17:48:33.504Z,22.76
2019-05-10T17:51:02.969Z,22.86
2019-05-10T17:53:32.391Z,22.86
2019-05-10T17:56:03.145Z,22.64
2019-05-10T17:58:33.951Z,22.50
2019-05-10T18:01:04.350Z,22.42
2019-05-10T18:03:33.798Z,22.38
2019-05-10T18:06:03.243Z,22.72
2019-05-10T18:08:32.742Z,23.47
2019-05-10T18:11:03.985Z,24.23
2019-05-10T18:13:35.567Z,25.02
2019-05-10T18:16:09.095Z,25.88
2019-05-10T18:18:45.880Z,26.37
2019-05-10T18:21:09.375Z,26.87
2019-05-10T18:23:38.748Z,27.17
2019-05-10T18:26:08.133Z,27.34
2019-05-10T18:28:37.527Z,27.52
2019-05-10T18:31:06.931Z,27.76
2019-05-10T18:33:37.218Z,27.70
2019-05-10T18:36:06.610Z,27.46
2019-05-10T18:38:38.971Z,26.88
2019-05-10T18:41:10.072Z,26.21
2019-05-10T18:43:40.824Z,25.64
2019-05-10T18:46:10.582Z,25.15
2019-05-10T18:48:39.958Z,24.64
2019-05-10T18:51:09.408Z,23.94
2019-05-10T18:53:38.864Z,23.30
2019-05-10T18:56:08.185Z,22.66
2019-05-10T18:58:37.847Z,22.06
2019-05-10T19:01:07.363Z,21.61
2019-05-10T19:03:37.019Z,21.23
2019-05-10T19:06:10.961Z,21.05
2019-05-10T19:08:43.845Z,21.14
2019-05-10T19:11:12.084Z,20.83
2019-05-10T19:13:47.859Z,20.79
2019-05-10T19:16:13.809Z,20.86
2019-05-10T19:18:43.447Z,21.13
2019-05-10T19:21:13.055Z,21.55
2019-05-10T19:23:42.601Z,21.22
2019-05-10T19:26:12.266Z,20.68
2019-05-10T19:28:41.828Z,20.30
2019-05-10T19:31:11.489Z,19.94
2019-05-10T19:33:41.275Z,19.54
2019-05-10T19:36:14.739Z,19.18
2019-05-10T19:39:06.983Z,18.87
2019-05-10T19:42:15.045Z,18.60
2019-05-10T19:44:46.829Z,18.33
2019-05-10T19:47:20.104Z,18.10
2019-05-10T19:49:52.056Z,17.88
2019-05-10T19:52:25.948Z,17.66
2019-05-10T19:54:58.666Z,17.49
2019-05-10T19:57:28.860Z,17.37
2019-05-10T20:00:01.493Z,17.25
2019-05-10T20:02:34.245Z,17.13
2019-05-10T20:05:04.431Z,17.06
2019-05-10T20:07:45.442Z,16.98
2019-05-10T20:10:07.811Z,16.96
2019-05-10T20:12:38.840Z,16.89
2019-05-10T20:15:08.672Z,16.86
2019-05-10T20:17:38.313Z,16.81
2019-05-10T20:20:08.331Z,16.76
2019-05-10T20:22:39.450Z,16.72
2019-05-10T20:25:09.434Z,16.69
2019-05-10T20:27:39.165Z,16.69
2019-05-10T20:30:10.855Z,16.68
2019-05-10T20:32:40.498Z,16.64
2019-05-10T20:35:10.133Z,16.59
2019-05-10T20:37:39.746Z,16.55
2019-05-10T20:40:09.422Z,16.50
2019-05-10T20:42:38.890Z,16.46
2019-05-10T20:45:08.913Z,16.41
2019-05-10T20:47:38.586Z,16.37
2019-05-10T20:50:08.326Z,16.33
2019-05-10T20:52:37.839Z,16.28
2019-05-10T20:55:09.323Z,16.23
2019-05-10T20:57:43.633Z,16.17
2019-05-10T21:03:47.876Z,16.09
2019-05-10T21:06:26.477Z,16.05
2019-05-10T21:09:18.227Z,16.02
2019-05-10T21:11:53.044Z,16.00
2019-05-10T21:14:50.173Z,15.96
2019-05-10T21:17:27.945Z,15.94
2019-05-10T21:19:57.459Z,15.91
2019-05-10T21:22:40.027Z,15.88
2019-05-10T21:25:17.229Z,15.82
2019-05-10T21:27:46.933Z,15.80
2019-05-10T21:30:17.126Z,15.74
2019-05-10T21:32:46.608Z,15.66
2019-05-10T21:35:16.261Z,15.53
2019-05-10T21:37:45.861Z,15.41
2019-05-10T21:40:15.866Z,15.30
2019-05-10T21:42:45.600Z,15.20
2019-05-10T21:45:15.860Z,15.11
2019-05-10T21:47:51.646Z,15.03
2019-05-10T21:50:16.701Z,14.95
2019-05-10T21:52:46.303Z,14.90
2019-05-10T21:55:16.921Z,14.84
2019-05-10T21:57:47.032Z,14.74
2019-05-10T22:00:19.297Z,14.62
2019-05-10T22:02:51.637Z,14.53
2019-05-10T22:05:21.755Z,14.41
2019-05-10T22:07:51.545Z,14.31
2019-05-10T22:10:21.339Z,14.21
2019-05-10T22:12:52.579Z,14.12
2019-05-10T22:15:22.332Z,14.10
2019-05-10T22:17:52.014Z,14.08
2019-05-10T22:20:22.157Z,14.08
2019-05-10T22:22:51.797Z,14.04
2019-05-10T22:25:21.486Z,14.01
2019-05-10T22:27:51.190Z,13.98
2019-05-10T22:30:20.678Z,13.95
2019-05-10T22:32:50.457Z,13.96
2019-05-10T22:35:20.098Z,13.90
2019-05-10T22:37:49.672Z,13.85
2019-05-10T22:40:19.305Z,13.84
2019-05-10T22:42:48.850Z,13.83
2019-05-10T22:45:18.479Z,13.81
2019-05-10T22:47:49.068Z,13.80
2019-05-10T22:50:18.713Z,13.78
2019-05-10T22:52:49.487Z,13.75
2019-05-10T22:55:19.570Z,13.73
2019-05-10T22:57:49.577Z,13.67
2019-05-10T23:00:19.479Z,13.59
2019-05-10T23:02:49.183Z,13.53
2019-05-10T23:05:19.789Z,13.50
2019-05-10T23:07:50.269Z,13.46
2019-05-10T23:10:20.555Z,13.42
2019-05-10T23:12:52.261Z,13.38
2019-05-10T23:15:21.929Z,13.41
2019-05-10T23:17:52.196Z,13.45
2019-05-10T23:20:22.001Z,13.51
2019-05-10T23:22:53.005Z,13.62
2019-05-10T23:27:55.008Z,13.78
2019-05-10T23:30:24.506Z,13.74
2019-05-10T23:32:53.890Z,13.72
2019-05-10T23:35:23.422Z,13.75
2019-05-10T23:37:52.934Z,13.80
2019-05-10T23:40:22.415Z,13.83
2019-05-10T23:42:52.207Z,13.84
2019-05-10T23:45:21.778Z,13.84
2019-05-10T23:47:52.005Z,13.85
2019-05-10T23:50:21.684Z,13.85
2019-05-10T23:52:51.262Z,13.82
2019-05-10T23:55:20.738Z,13.77
2019-05-10T23:57:50.237Z,13.75
